sensor_id;sensor_type;location;lat;lon;timestamp;P1;durP1;ratioP1;P2;durP2;ratioP2
20101;SDS011;10210;52.284;9.892;2023-01-29T00:02:22;26.13;;;14.40;;
20101;SDS011;10210;52.284;9.892;2023-01-29T00:04:48;26.30;;;13.97;;
20101;SDS011;10210;52.284;9.892;2023-01-29T00:07:14;27.80;;;14.67;;
20101;SDS011;10210;52.284;9.892;2023-01-29T00:09:39;27.63;;;15.13;;
20101;SDS011;10210;52.284;9.892;2023-01-29T00:12:05;27.60;;;14.70;;
20101;SDS011;10210;52.284;9.892;2023-01-29T00:14:33;28.27;;;15.07;;
20101;SDS011;10210;52.284;9.892;2023-01-29T00:16:59;26.87;;;15.27;;
20101;SDS011;10210;52.284;9.892;2023-01-29T00:19:25;26.33;;;14.50;;
20101;SDS011;10210;52.284;9.892;2023-01-29T00:21:51;27.20;;;14.80;;
20101;SDS011;10210;52.284;9.892;2023-01-29T00:24:16;31.37;;;15.57;;
20101;SDS011;10210;52.284;9.892;2023-01-29T00:26:42;28.27;;;15.33;;
20101;SDS011;10210;52.284;9.892;2023-01-29T00:29:08;28.00;;;15.23;;
20101;SDS011;10210;52.284;9.892;2023-01-29T00:31:34;29.10;;;15.67;;
20101;SDS011;10210;52.284;9.892;2023-01-29T00:33:59;27.43;;;15.20;;
20101;SDS011;10210;52.284;9.892;2023-01-29T00:36:25;27.27;;;14.97;;
20101;SDS011;10210;52.284;9.892;2023-01-29T00:38:54;30.90;;;15.83;;
20101;SDS011;10210;52.284;9.892;2023-01-29T00:41:27;26.83;;;14.73;;
20101;SDS011;10210;52.284;9.892;2023-01-29T00:44:13;28.73;;;15.47;;
20101;SDS011;10210;52.284;9.892;2023-01-29T00:46:58;26.97;;;15.70;;
20101;SDS011;10210;52.284;9.892;2023-01-29T00:49:24;29.70;;;15.37;;
20101;SDS011;10210;52.284;9.892;2023-01-29T00:51:50;29.37;;;16.77;;
20101;SDS011;10210;52.284;9.892;2023-01-29T00:54:35;30.13;;;15.77;;
20101;SDS011;10210;52.284;9.892;2023-01-29T00:57:01;28.60;;;15.40;;
20101;SDS011;10210;52.284;9.892;2023-01-29T00:59:28;29.60;;;16.40;;
20101;SDS011;10210;52.284;9.892;2023-01-29T01:01:54;28.87;;;16.50;;
20101;SDS011;10210;52.284;9.892;2023-01-29T01:04:39;29.20;;;15.43;;
20101;SDS011;10210;52.284;9.892;2023-01-29T01:07:05;28.53;;;15.73;;
20101;SDS011;10210;52.284;9.892;2023-01-29T01:09:33;31.00;;;16.43;;
20101;SDS011;10210;52.284;9.892;2023-01-29T01:12:19;29.57;;;16.53;;
20101;SDS011;10210;52.284;9.892;2023-01-29T01:14:45;31.17;;;16.90;;
20101;SDS011;10210;52.284;9.892;2023-01-29T01:17:11;31.87;;;16.87;;
20101;SDS011;10210;52.284;9.892;2023-01-29T01:19:39;28.80;;;16.07;;
20101;SDS011;10210;52.284;9.892;2023-01-29T01:22:05;29.90;;;16.67;;
20101;SDS011;10210;52.284;9.892;2023-01-29T01:24:30;29.50;;;16.57;;
20101;SDS011;10210;52.284;9.892;2023-01-29T01:26:56;30.77;;;17.33;;
20101;SDS011;10210;52.284;9.892;2023-01-29T01:29:22;29.80;;;17.23;;
20101;SDS011;10210;52.284;9.892;2023-01-29T01:31:48;30.37;;;16.73;;
20101;SDS011;10210;52.284;9.892;2023-01-29T01:34:14;30.33;;;16.80;;
20101;SDS011;10210;52.284;9.892;2023-01-29T01:36:40;31.63;;;16.93;;
20101;SDS011;10210;52.284;9.892;2023-01-29T01:39:05;31.87;;;17.30;;
20101;SDS011;10210;52.284;9.892;2023-01-29T01:41:32;31.13;;;16.47;;
20101;SDS011;10210;52.284;9.892;2023-01-29T01:44:01;32.70;;;18.30;;
20101;SDS011;10210;52.284;9.892;2023-01-29T01:46:30;32.70;;;18.40;;
20101;SDS011;10210;52.284;9.892;2023-01-29T01:49:09;33.80;;;17.77;;
20101;SDS011;10210;52.284;9.892;2023-01-29T01:51:43;31.90;;;17.80;;
20101;SDS011;10210;52.284;9.892;2023-01-29T01:54:17;31.17;;;17.57;;
20101;SDS011;10210;52.284;9.892;2023-01-29T01:57:03;35.87;;;18.40;;
20101;SDS011;10210;52.284;9.892;2023-01-29T01:59:40;30.87;;;17.50;;
20101;SDS011;10210;52.284;9.892;2023-01-29T02:02:12;33.27;;;17.83;;
20101;SDS011;10210;52.284;9.892;2023-01-29T02:04:58;35.83;;;17.67;;
20101;SDS011;10210;52.284;9.892;2023-01-29T02:07:43;33.40;;;18.43;;
20101;SDS011;10210;52.284;9.892;2023-01-29T02:10:34;31.23;;;17.17;;
20101;SDS011;10210;52.284;9.892;2023-01-29T02:13:08;32.93;;;18.13;;
20101;SDS011;10210;52.284;9.892;2023-01-29T02:15:36;32.77;;;17.90;;
20101;SDS011;10210;52.284;9.892;2023-01-29T02:18:06;32.33;;;17.60;;
20101;SDS011;10210;52.284;9.892;2023-01-29T02:20:33;33.87;;;19.03;;
20101;SDS011;10210;52.284;9.892;2023-01-29T02:28:51;33.77;;;18.03;;
20101;SDS011;10210;52.284;9.892;2023-01-29T02:35:01;32.00;;;18.30;;
20101;SDS011;10210;52.284;9.892;2023-01-29T02:43:58;35.13;;;19.37;;
20101;SDS011;10210;52.284;9.892;2023-01-29T02:49:39;37.27;;;18.83;;
20101;SDS011;10210;52.284;9.892;2023-01-29T02:55:22;32.30;;;18.83;;
20101;SDS011;10210;52.284;9.892;2023-01-29T02:58:16;33.27;;;18.97;;
20101;SDS011;10210;52.284;9.892;2023-01-29T03:00:46;32.50;;;18.30;;
20101;SDS011;10210;52.284;9.892;2023-01-29T03:03:15;34.73;;;19.17;;
20101;SDS011;10210;52.284;9.892;2023-01-29T03:06:00;34.37;;;19.23;;
20101;SDS011;10210;52.284;9.892;2023-01-29T03:08:44;33.17;;;18.87;;
20101;SDS011;10210;52.284;9.892;2023-01-29T03:11:27;36.53;;;19.03;;
20101;SDS011;10210;52.284;9.892;2023-01-29T03:16:42;36.33;;;19.27;;
20101;SDS011;10210;52.284;9.892;2023-01-29T03:22:00;33.90;;;19.00;;
20101;SDS011;10210;52.284;9.892;2023-01-29T03:24:34;33.47;;;18.93;;
20101;SDS011;10210;52.284;9.892;2023-01-29T03:27:34;33.33;;;18.07;;
20101;SDS011;10210;52.284;9.892;2023-01-29T03:30:35;34.20;;;18.67;;
20101;SDS011;10210;52.284;9.892;2023-01-29T03:33:25;35.00;;;18.13;;
20101;SDS011;10210;52.284;9.892;2023-01-29T03:36:05;32.50;;;18.50;;
20101;SDS011;10210;52.284;9.892;2023-01-29T03:38:41;32.93;;;18.80;;
20101;SDS011;10210;52.284;9.892;2023-01-29T03:41:09;31.87;;;18.20;;
20101;SDS011;10210;52.284;9.892;2023-01-29T03:46:50;36.23;;;19.37;;
20101;SDS011;10210;52.284;9.892;2023-01-29T03:52:15;36.70;;;20.43;;
20101;SDS011;10210;52.284;9.892;2023-01-29T03:55:28;34.63;;;18.63;;
20101;SDS011;10210;52.284;9.892;2023-01-29T03:58:15;35.23;;;19.47;;
20101;SDS011;10210;52.284;9.892;2023-01-29T04:00:52;35.27;;;19.30;;
20101;SDS011;10210;52.284;9.892;2023-01-29T04:06:05;34.37;;;18.90;;
20101;SDS011;10210;52.284;9.892;2023-01-29T04:08:39;35.57;;;20.00;;
20101;SDS011;10210;52.284;9.892;2023-01-29T04:11:17;35.30;;;18.80;;
20101;SDS011;10210;52.284;9.892;2023-01-29T04:13:48;35.13;;;20.00;;
20101;SDS011;10210;52.284;9.892;2023-01-29T04:16:18;33.57;;;18.97;;
20101;SDS011;10210;52.284;9.892;2023-01-29T04:18:51;36.67;;;19.27;;
20101;SDS011;10210;52.284;9.892;2023-01-29T04:21:18;36.87;;;20.07;;
20101;SDS011;10210;52.284;9.892;2023-01-29T04:23:45;33.73;;;18.43;;
20101;SDS011;10210;52.284;9.892;2023-01-29T04:38:11;34.43;;;19.40;;
20101;SDS011;10210;52.284;9.892;2023-01-29T04:41:19;36.37;;;19.10;;
20101;SDS011;10210;52.284;9.892;2023-01-29T04:44:21;36.00;;;19.17;;
20101;SDS011;10210;52.284;9.892;2023-01-29T04:49:44;36.47;;;19.73;;
20101;SDS011;10210;52.284;9.892;2023-01-29T04:55:48;37.23;;;19.77;;
20101;SDS011;10210;52.284;9.892;2023-01-29T04:58:27;37.30;;;18.87;;
20101;SDS011;10210;52.284;9.892;2023-01-29T05:01:03;36.60;;;19.13;;
20101;SDS011;10210;52.284;9.892;2023-01-29T05:03:35;37.00;;;19.87;;
20101;SDS011;10210;52.284;9.892;2023-01-29T05:06:06;37.73;;;20.57;;
20101;SDS011;10210;52.284;9.892;2023-01-29T05:08:35;37.20;;;20.43;;
20101;SDS011;10210;52.284;9.892;2023-01-29T05:11:04;33.90;;;19.87;;
20101;SDS011;10210;52.284;9.892;2023-01-29T05:13:30;37.30;;;20.13;;
20101;SDS011;10210;52.284;9.892;2023-01-29T05:16:04;35.10;;;19.27;;
20101;SDS011;10210;52.284;9.892;2023-01-29T05:18:43;36.93;;;19.97;;
20101;SDS011;10210;52.284;9.892;2023-01-29T05:21:09;34.20;;;18.97;;
20101;SDS011;10210;52.284;9.892;2023-01-29T05:23:35;40.67;;;20.77;;
20101;SDS011;10210;52.284;9.892;2023-01-29T05:26:01;36.07;;;19.40;;
20101;SDS011;10210;52.284;9.892;2023-01-29T05:28:27;35.93;;;19.63;;
20101;SDS011;10210;52.284;9.892;2023-01-29T05:30:53;36.43;;;18.97;;
20101;SDS011;10210;52.284;9.892;2023-01-29T05:33:22;37.20;;;20.20;;
20101;SDS011;10210;52.284;9.892;2023-01-29T05:35:52;37.27;;;19.77;;
20101;SDS011;10210;52.284;9.892;2023-01-29T05:38:19;37.60;;;20.33;;
20101;SDS011;10210;52.284;9.892;2023-01-29T05:40:46;36.30;;;19.53;;
20101;SDS011;10210;52.284;9.892;2023-01-29T05:43:14;37.33;;;19.73;;
20101;SDS011;10210;52.284;9.892;2023-01-29T05:45:41;33.57;;;18.53;;
20101;SDS011;10210;52.284;9.892;2023-01-29T05:48:07;34.37;;;18.80;;
20101;SDS011;10210;52.284;9.892;2023-01-29T05:50:33;37.13;;;19.27;;
20101;SDS011;10210;52.284;9.892;2023-01-29T05:52:59;38.17;;;20.37;;
20101;SDS011;10210;52.284;9.892;2023-01-29T05:55:26;37.37;;;19.40;;
20101;SDS011;10210;52.284;9.892;2023-01-29T05:57:53;38.20;;;19.73;;
20101;SDS011;10210;52.284;9.892;2023-01-29T06:00:19;33.67;;;18.33;;
20101;SDS011;10210;52.284;9.892;2023-01-29T06:02:46;38.20;;;19.70;;
20101;SDS011;10210;52.284;9.892;2023-01-29T06:05:11;36.47;;;19.87;;
20101;SDS011;10210;52.284;9.892;2023-01-29T06:07:37;35.40;;;19.33;;
20101;SDS011;10210;52.284;9.892;2023-01-29T06:10:04;34.40;;;19.50;;
20101;SDS011;10210;52.284;9.892;2023-01-29T06:12:30;35.67;;;19.27;;
20101;SDS011;10210;52.284;9.892;2023-01-29T06:14:56;37.80;;;19.97;;
20101;SDS011;10210;52.284;9.892;2023-01-29T06:17:21;36.60;;;19.63;;
20101;SDS011;10210;52.284;9.892;2023-01-29T06:19:48;35.93;;;19.70;;
20101;SDS011;10210;52.284;9.892;2023-01-29T06:22:13;37.53;;;19.63;;
20101;SDS011;10210;52.284;9.892;2023-01-29T06:24:39;38.23;;;20.17;;
20101;SDS011;10210;52.284;9.892;2023-01-29T06:27:05;34.80;;;18.50;;
20101;SDS011;10210;52.284;9.892;2023-01-29T06:29:30;36.70;;;19.87;;
20101;SDS011;10210;52.284;9.892;2023-01-29T06:31:56;36.03;;;19.13;;
20101;SDS011;10210;52.284;9.892;2023-01-29T06:34:21;37.47;;;18.90;;
20101;SDS011;10210;52.284;9.892;2023-01-29T06:36:48;39.03;;;20.40;;
20101;SDS011;10210;52.284;9.892;2023-01-29T06:39:13;35.83;;;18.20;;
20101;SDS011;10210;52.284;9.892;2023-01-29T06:41:39;36.00;;;19.33;;
20101;SDS011;10210;52.284;9.892;2023-01-29T06:44:05;38.13;;;19.37;;
20101;SDS011;10210;52.284;9.892;2023-01-29T06:46:31;36.67;;;19.50;;
20101;SDS011;10210;52.284;9.892;2023-01-29T06:48:57;35.50;;;18.90;;
20101;SDS011;10210;52.284;9.892;2023-01-29T06:51:26;35.23;;;18.63;;
20101;SDS011;10210;52.284;9.892;2023-01-29T06:53:52;35.90;;;19.20;;
20101;SDS011;10210;52.284;9.892;2023-01-29T06:56:20;36.70;;;19.70;;
20101;SDS011;10210;52.284;9.892;2023-01-29T06:58:46;40.33;;;20.00;;
20101;SDS011;10210;52.284;9.892;2023-01-29T07:01:12;38.40;;;19.50;;
20101;SDS011;10210;52.284;9.892;2023-01-29T07:03:38;38.47;;;20.60;;
20101;SDS011;10210;52.284;9.892;2023-01-29T07:06:05;38.63;;;19.30;;
20101;SDS011;10210;52.284;9.892;2023-01-29T07:08:34;39.10;;;20.37;;
20101;SDS011;10210;52.284;9.892;2023-01-29T07:11:04;38.17;;;19.67;;
20101;SDS011;10210;52.284;9.892;2023-01-29T07:13:31;39.77;;;20.10;;
20101;SDS011;10210;52.284;9.892;2023-01-29T07:15:57;37.63;;;18.40;;
20101;SDS011;10210;52.284;9.892;2023-01-29T07:18:28;42.40;;;20.80;;
20101;SDS011;10210;52.284;9.892;2023-01-29T07:20:54;39.80;;;21.37;;
20101;SDS011;10210;52.284;9.892;2023-01-29T07:23:21;39.10;;;20.57;;
20101;SDS011;10210;52.284;9.892;2023-01-29T07:25:48;41.60;;;21.63;;
20101;SDS011;10210;52.284;9.892;2023-01-29T07:28:15;40.23;;;20.70;;
20101;SDS011;10210;52.284;9.892;2023-01-29T07:30:46;42.03;;;21.97;;
20101;SDS011;10210;52.284;9.892;2023-01-29T07:33:12;43.03;;;21.57;;
20101;SDS011;10210;52.284;9.892;2023-01-29T07:35:38;41.67;;;21.30;;
20101;SDS011;10210;52.284;9.892;2023-01-29T07:38:08;39.63;;;20.77;;
20101;SDS011;10210;52.284;9.892;2023-01-29T07:40:35;41.17;;;22.40;;
20101;SDS011;10210;52.284;9.892;2023-01-29T07:43:02;44.10;;;23.33;;
20101;SDS011;10210;52.284;9.892;2023-01-29T07:45:30;44.93;;;22.63;;
20101;SDS011;10210;52.284;9.892;2023-01-29T07:47:59;45.50;;;22.40;;
20101;SDS011;10210;52.284;9.892;2023-01-29T07:50:25;44.77;;;23.10;;
20101;SDS011;10210;52.284;9.892;2023-01-29T07:52:54;48.53;;;23.93;;
20101;SDS011;10210;52.284;9.892;2023-01-29T07:55:20;47.53;;;23.37;;
20101;SDS011;10210;52.284;9.892;2023-01-29T07:57:53;46.33;;;23.90;;
20101;SDS011;10210;52.284;9.892;2023-01-29T08:00:20;44.17;;;23.07;;
20101;SDS011;10210;52.284;9.892;2023-01-29T08:02:46;46.57;;;25.17;;
20101;SDS011;10210;52.284;9.892;2023-01-29T08:05:12;45.20;;;24.20;;
20101;SDS011;10210;52.284;9.892;2023-01-29T08:07:38;47.47;;;25.23;;
20101;SDS011;10210;52.284;9.892;2023-01-29T08:10:03;49.20;;;24.10;;
20101;SDS011;10210;52.284;9.892;2023-01-29T08:12:30;47.73;;;25.17;;
20101;SDS011;10210;52.284;9.892;2023-01-29T08:14:56;46.33;;;23.83;;
20101;SDS011;10210;52.284;9.892;2023-01-29T08:17:21;48.40;;;24.77;;
20101;SDS011;10210;52.284;9.892;2023-01-29T08:19:47;47.90;;;25.37;;
20101;SDS011;10210;52.284;9.892;2023-01-29T08:22:12;47.20;;;24.33;;
20101;SDS011;10210;52.284;9.892;2023-01-29T08:24:40;46.67;;;24.07;;
20101;SDS011;10210;52.284;9.892;2023-01-29T08:27:06;45.97;;;24.50;;
20101;SDS011;10210;52.284;9.892;2023-01-29T08:29:33;49.13;;;23.20;;
20101;SDS011;10210;52.284;9.892;2023-01-29T08:31:59;45.87;;;24.00;;
20101;SDS011;10210;52.284;9.892;2023-01-29T08:34:25;44.57;;;24.40;;
20101;SDS011;10210;52.284;9.892;2023-01-29T08:36:51;46.00;;;23.87;;
20101;SDS011;10210;52.284;9.892;2023-01-29T08:39:17;42.87;;;23.03;;
20101;SDS011;10210;52.284;9.892;2023-01-29T08:41:43;48.57;;;24.77;;
20101;SDS011;10210;52.284;9.892;2023-01-29T08:44:09;46.77;;;24.63;;
20101;SDS011;10210;52.284;9.892;2023-01-29T08:46:35;44.13;;;24.37;;
20101;SDS011;10210;52.284;9.892;2023-01-29T08:49:01;44.23;;;24.23;;
20101;SDS011;10210;52.284;9.892;2023-01-29T08:51:27;46.97;;;24.17;;
20101;SDS011;10210;52.284;9.892;2023-01-29T08:53:53;46.13;;;24.67;;
20101;SDS011;10210;52.284;9.892;2023-01-29T08:56:18;45.50;;;23.73;;
20101;SDS011;10210;52.284;9.892;2023-01-29T08:58:44;46.20;;;23.30;;
20101;SDS011;10210;52.284;9.892;2023-01-29T09:01:11;44.13;;;22.93;;
20101;SDS011;10210;52.284;9.892;2023-01-29T09:03:38;48.37;;;25.13;;
20101;SDS011;10210;52.284;9.892;2023-01-29T09:06:12;44.80;;;23.73;;
20101;SDS011;10210;52.284;9.892;2023-01-29T09:08:38;50.33;;;25.57;;
20101;SDS011;10210;52.284;9.892;2023-01-29T09:11:05;46.40;;;24.93;;
20101;SDS011;10210;52.284;9.892;2023-01-29T09:13:30;45.93;;;24.83;;
20101;SDS011;10210;52.284;9.892;2023-01-29T09:16:00;44.50;;;24.20;;
20101;SDS011;10210;52.284;9.892;2023-01-29T09:18:27;45.03;;;24.43;;
20101;SDS011;10210;52.284;9.892;2023-01-29T09:20:54;47.20;;;24.23;;
20101;SDS011;10210;52.284;9.892;2023-01-29T09:23:22;48.23;;;24.43;;
20101;SDS011;10210;52.284;9.892;2023-01-29T09:25:48;51.30;;;24.80;;
20101;SDS011;10210;52.284;9.892;2023-01-29T09:28:14;44.60;;;23.67;;
20101;SDS011;10210;52.284;9.892;2023-01-29T09:30:41;44.77;;;24.23;;
20101;SDS011;10210;52.284;9.892;2023-01-29T09:33:08;46.17;;;24.10;;
20101;SDS011;10210;52.284;9.892;2023-01-29T09:35:34;44.87;;;24.17;;
20101;SDS011;10210;52.284;9.892;2023-01-29T09:38:00;46.43;;;23.07;;
20101;SDS011;10210;52.284;9.892;2023-01-29T09:40:29;46.67;;;24.43;;
20101;SDS011;10210;52.284;9.892;2023-01-29T09:43:25;45.33;;;22.53;;
20101;SDS011;10210;52.284;9.892;2023-01-29T09:46:11;44.27;;;23.53;;
20101;SDS011;10210;52.284;9.892;2023-01-29T09:48:59;46.67;;;24.47;;
20101;SDS011;10210;52.284;9.892;2023-01-29T09:51:39;47.70;;;23.10;;
20101;SDS011;10210;52.284;9.892;2023-01-29T09:56:46;44.70;;;23.97;;
20101;SDS011;10210;52.284;9.892;2023-01-29T09:59:18;46.87;;;24.40;;
20101;SDS011;10210;52.284;9.892;2023-01-29T10:01:55;48.27;;;25.50;;
20101;SDS011;10210;52.284;9.892;2023-01-29T10:04:59;48.10;;;24.50;;
20101;SDS011;10210;52.284;9.892;2023-01-29T10:11:00;46.07;;;23.43;;
20101;SDS011;10210;52.284;9.892;2023-01-29T10:17:17;46.07;;;24.67;;
20101;SDS011;10210;52.284;9.892;2023-01-29T10:23:18;46.57;;;23.50;;
20101;SDS011;10210;52.284;9.892;2023-01-29T10:25:54;44.30;;;23.90;;
20101;SDS011;10210;52.284;9.892;2023-01-29T10:28:24;43.30;;;22.77;;
20101;SDS011;10210;52.284;9.892;2023-01-29T10:31:00;43.60;;;23.07;;
20101;SDS011;10210;52.284;9.892;2023-01-29T10:33:40;40.10;;;21.17;;
20101;SDS011;10210;52.284;9.892;2023-01-29T10:36:15;47.60;;;24.93;;
20101;SDS011;10210;52.284;9.892;2023-01-29T10:38:48;45.17;;;23.03;;
20101;SDS011;10210;52.284;9.892;2023-01-29T10:41:21;45.27;;;23.53;;
20101;SDS011;10210;52.284;9.892;2023-01-29T10:44:22;42.40;;;22.97;;
20101;SDS011;10210;52.284;9.892;2023-01-29T10:49:58;49.10;;;23.07;;
20101;SDS011;10210;52.284;9.892;2023-01-29T10:56:18;43.10;;;22.50;;
20101;SDS011;10210;52.284;9.892;2023-01-29T10:59:14;45.63;;;23.17;;
20101;SDS011;10210;52.284;9.892;2023-01-29T11:02:24;42.00;;;22.23;;
20101;SDS011;10210;52.284;9.892;2023-01-29T11:04:50;44.80;;;22.70;;
20101;SDS011;10210;52.284;9.892;2023-01-29T11:07:16;43.67;;;22.77;;
20101;SDS011;10210;52.284;9.892;2023-01-29T11:10:09;42.27;;;22.10;;
20101;SDS011;10210;52.284;9.892;2023-01-29T11:12:41;40.87;;;22.73;;
20101;SDS011;10210;52.284;9.892;2023-01-29T11:15:15;42.23;;;21.77;;
20101;SDS011;10210;52.284;9.892;2023-01-29T11:18:01;42.27;;;23.00;;
20101;SDS011;10210;52.284;9.892;2023-01-29T11:20:28;40.83;;;21.53;;
20101;SDS011;10210;52.284;9.892;2023-01-29T11:22:55;43.20;;;22.83;;
20101;SDS011;10210;52.284;9.892;2023-01-29T11:25:21;40.37;;;21.17;;
20101;SDS011;10210;52.284;9.892;2023-01-29T11:27:54;44.37;;;22.80;;
20101;SDS011;10210;52.284;9.892;2023-01-29T11:30:24;43.13;;;22.27;;
20101;SDS011;10210;52.284;9.892;2023-01-29T11:35:46;39.37;;;20.83;;
20101;SDS011;10210;52.284;9.892;2023-01-29T11:40:41;41.80;;;22.27;;
20101;SDS011;10210;52.284;9.892;2023-01-29T11:46:10;41.37;;;21.17;;
20101;SDS011;10210;52.284;9.892;2023-01-29T11:48:42;42.10;;;21.77;;
20101;SDS011;10210;52.284;9.892;2023-01-29T11:51:25;42.10;;;22.27;;
20101;SDS011;10210;52.284;9.892;2023-01-29T11:53:57;42.17;;;21.23;;
20101;SDS011;10210;52.284;9.892;2023-01-29T11:56:33;42.67;;;22.60;;
20101;SDS011;10210;52.284;9.892;2023-01-29T11:59:12;42.40;;;21.10;;
20101;SDS011;10210;52.284;9.892;2023-01-29T12:05:04;40.93;;;21.87;;
20101;SDS011;10210;52.284;9.892;2023-01-29T12:07:41;40.40;;;20.60;;
20101;SDS011;10210;52.284;9.892;2023-01-29T12:13:42;39.00;;;20.33;;
20101;SDS011;10210;52.284;9.892;2023-01-29T12:16:04;45.20;;;22.93;;
20101;SDS011;10210;52.284;9.892;2023-01-29T12:18:50;38.70;;;19.97;;
20101;SDS011;10210;52.284;9.892;2023-01-29T12:24:15;40.73;;;22.67;;
20101;SDS011;10210;52.284;9.892;2023-01-29T12:30:24;36.67;;;19.30;;
20101;SDS011;10210;52.284;9.892;2023-01-29T12:33:08;40.50;;;19.87;;
20101;SDS011;10210;52.284;9.892;2023-01-29T12:36:01;34.63;;;17.77;;
20101;SDS011;10210;52.284;9.892;2023-01-29T12:38:35;39.73;;;19.80;;
20101;SDS011;10210;52.284;9.892;2023-01-29T12:41:05;35.63;;;19.10;;
20101;SDS011;10210;52.284;9.892;2023-01-29T12:43:49;35.77;;;17.13;;
20101;SDS011;10210;52.284;9.892;2023-01-29T12:46:23;35.07;;;19.03;;
20101;SDS011;10210;52.284;9.892;2023-01-29T12:48:54;35.57;;;17.63;;
20101;SDS011;10210;52.284;9.892;2023-01-29T12:51:30;35.27;;;17.00;;
20101;SDS011;10210;52.284;9.892;2023-01-29T12:56:47;35.70;;;18.77;;
20101;SDS011;10210;52.284;9.892;2023-01-29T12:59:23;37.37;;;19.30;;
20101;SDS011;10210;52.284;9.892;2023-01-29T13:05:04;35.50;;;18.67;;
20101;SDS011;10210;52.284;9.892;2023-01-29T13:08:00;34.57;;;17.60;;
20101;SDS011;10210;52.284;9.892;2023-01-29T13:10:36;39.43;;;19.47;;
20101;SDS011;10210;52.284;9.892;2023-01-29T13:13:13;37.50;;;19.87;;
20101;SDS011;10210;52.284;9.892;2023-01-29T13:15:48;35.00;;;18.37;;
20101;SDS011;10210;52.284;9.892;2023-01-29T13:20:56;38.03;;;19.10;;
20101;SDS011;10210;52.284;9.892;2023-01-29T13:23:28;44.50;;;22.80;;
20101;SDS011;10210;52.284;9.892;2023-01-29T13:26:00;44.37;;;23.53;;
20101;SDS011;10210;52.284;9.892;2023-01-29T13:28:26;44.30;;;23.30;;
20101;SDS011;10210;52.284;9.892;2023-01-29T13:33:39;39.73;;;21.30;;
20101;SDS011;10210;52.284;9.892;2023-01-29T13:36:10;36.83;;;18.60;;
20101;SDS011;10210;52.284;9.892;2023-01-29T13:38:42;33.23;;;18.00;;
20101;SDS011;10210;52.284;9.892;2023-01-29T13:41:11;34.47;;;18.20;;
20101;SDS011;10210;52.284;9.892;2023-01-29T13:43:39;33.37;;;16.67;;
20101;SDS011;10210;52.284;9.892;2023-01-29T13:46:12;33.23;;;17.27;;
20101;SDS011;10210;52.284;9.892;2023-01-29T13:48:45;35.17;;;18.17;;
20101;SDS011;10210;52.284;9.892;2023-01-29T13:51:16;36.03;;;20.63;;
20101;SDS011;10210;52.284;9.892;2023-01-29T13:53:54;36.03;;;18.37;;
20101;SDS011;10210;52.284;9.892;2023-01-29T13:56:34;36.40;;;19.20;;
20101;SDS011;10210;52.284;9.892;2023-01-29T13:59:55;36.47;;;18.77;;
20101;SDS011;10210;52.284;9.892;2023-01-29T14:02:34;35.47;;;19.53;;
20101;SDS011;10210;52.284;9.892;2023-01-29T14:07:53;38.00;;;19.13;;
20101;SDS011;10210;52.284;9.892;2023-01-29T14:10:25;37.63;;;20.37;;
20101;SDS011;10210;52.284;9.892;2023-01-29T14:12:54;35.70;;;19.07;;
20101;SDS011;10210;52.284;9.892;2023-01-29T14:15:42;33.90;;;17.97;;
20101;SDS011;10210;52.284;9.892;2023-01-29T14:18:18;36.07;;;19.43;;
20101;SDS011;10210;52.284;9.892;2023-01-29T14:26:21;36.07;;;18.93;;
20101;SDS011;10210;52.284;9.892;2023-01-29T14:29:04;31.33;;;17.20;;
20101;SDS011;10210;52.284;9.892;2023-01-29T14:31:41;33.43;;;18.50;;
20101;SDS011;10210;52.284;9.892;2023-01-29T14:34:25;33.83;;;17.47;;
20101;SDS011;10210;52.284;9.892;2023-01-29T14:37:02;34.10;;;18.70;;
20101;SDS011;10210;52.284;9.892;2023-01-29T14:39:48;35.27;;;18.63;;
20101;SDS011;10210;52.284;9.892;2023-01-29T14:42:25;34.57;;;17.67;;
20101;SDS011;10210;52.284;9.892;2023-01-29T14:45:22;39.03;;;19.47;;
20101;SDS011;10210;52.284;9.892;2023-01-29T14:52:57;34.00;;;18.50;;
20101;SDS011;10210;52.284;9.892;2023-01-29T14:55:34;34.23;;;18.27;;
20101;SDS011;10210;52.284;9.892;2023-01-29T14:58:11;36.60;;;19.50;;
20101;SDS011;10210;52.284;9.892;2023-01-29T15:00:52;37.77;;;19.13;;
20101;SDS011;10210;52.284;9.892;2023-01-29T15:06:21;35.67;;;19.07;;
20101;SDS011;10210;52.284;9.892;2023-01-29T15:09:12;35.80;;;19.40;;
20101;SDS011;10210;52.284;9.892;2023-01-29T15:11:49;36.60;;;18.77;;
20101;SDS011;10210;52.284;9.892;2023-01-29T15:17:48;36.97;;;19.90;;
20101;SDS011;10210;52.284;9.892;2023-01-29T15:22:54;38.50;;;19.67;;
20101;SDS011;10210;52.284;9.892;2023-01-29T15:25:20;36.80;;;19.63;;
20101;SDS011;10210;52.284;9.892;2023-01-29T15:27:47;38.23;;;20.13;;
20101;SDS011;10210;52.284;9.892;2023-01-29T15:30:18;36.47;;;19.90;;
20101;SDS011;10210;52.284;9.892;2023-01-29T15:32:50;37.27;;;19.37;;
20101;SDS011;10210;52.284;9.892;2023-01-29T15:43:26;41.30;;;21.93;;
20101;SDS011;10210;52.284;9.892;2023-01-29T15:46:01;42.63;;;21.03;;
20101;SDS011;10210;52.284;9.892;2023-01-29T15:48:34;37.63;;;21.00;;
20101;SDS011;10210;52.284;9.892;2023-01-29T15:51:09;35.40;;;18.77;;
20101;SDS011;10210;52.284;9.892;2023-01-29T15:53:48;37.17;;;19.13;;
20101;SDS011;10210;52.284;9.892;2023-01-29T15:56:20;40.67;;;19.70;;
20101;SDS011;10210;52.284;9.892;2023-01-29T15:58:52;37.03;;;20.20;;
20101;SDS011;10210;52.284;9.892;2023-01-29T16:01:24;39.37;;;20.87;;
20101;SDS011;10210;52.284;9.892;2023-01-29T16:03:51;42.37;;;21.20;;
20101;SDS011;10210;52.284;9.892;2023-01-29T16:06:18;39.20;;;21.13;;
20101;SDS011;10210;52.284;9.892;2023-01-29T16:08:47;42.83;;;22.70;;
20101;SDS011;10210;52.284;9.892;2023-01-29T16:11:17;36.77;;;20.03;;
20101;SDS011;10210;52.284;9.892;2023-01-29T16:13:44;39.90;;;20.77;;
20101;SDS011;10210;52.284;9.892;2023-01-29T16:18:39;38.80;;;20.37;;
20101;SDS011;10210;52.284;9.892;2023-01-29T16:21:16;46.70;;;27.03;;
20101;SDS011;10210;52.284;9.892;2023-01-29T16:23:53;40.03;;;21.57;;
20101;SDS011;10210;52.284;9.892;2023-01-29T16:26:32;43.73;;;22.23;;
20101;SDS011;10210;52.284;9.892;2023-01-29T16:29:13;38.00;;;20.07;;
20101;SDS011;10210;52.284;9.892;2023-01-29T16:31:53;38.10;;;19.33;;
20101;SDS011;10210;52.284;9.892;2023-01-29T16:34:31;34.03;;;19.40;;
20101;SDS011;10210;52.284;9.892;2023-01-29T16:37:04;35.10;;;19.77;;
20101;SDS011;10210;52.284;9.892;2023-01-29T16:39:44;33.67;;;17.67;;
20101;SDS011;10210;52.284;9.892;2023-01-29T16:44:55;32.67;;;17.33;;
20101;SDS011;10210;52.284;9.892;2023-01-29T16:47:27;33.60;;;18.30;;
20101;SDS011;10210;52.284;9.892;2023-01-29T16:52:53;36.07;;;19.17;;
20101;SDS011;10210;52.284;9.892;2023-01-29T16:55:22;33.30;;;17.50;;
20101;SDS011;10210;52.284;9.892;2023-01-29T16:57:52;35.73;;;18.33;;
20101;SDS011;10210;52.284;9.892;2023-01-29T17:00:26;32.37;;;17.40;;
20101;SDS011;10210;52.284;9.892;2023-01-29T17:03:13;31.80;;;17.63;;
20101;SDS011;10210;52.284;9.892;2023-01-29T17:05:43;31.07;;;17.17;;
20101;SDS011;10210;52.284;9.892;2023-01-29T17:08:17;32.03;;;17.13;;
20101;SDS011;10210;52.284;9.892;2023-01-29T17:10:49;29.40;;;16.43;;
20101;SDS011;10210;52.284;9.892;2023-01-29T17:13:29;31.27;;;17.50;;
20101;SDS011;10210;52.284;9.892;2023-01-29T17:16:25;31.93;;;17.40;;
20101;SDS011;10210;52.284;9.892;2023-01-29T17:18:55;34.20;;;17.93;;